• Join FlightAware (Why Join?)
  • Login
  • US Flag 
Rudolph Flight #1: Arrived! 
07:39PM EST


 

Airport Tracker/Info


-or-


 

Live Flight TrackerFlight Track Log ✈ SWA407 ✈ 03-May-2013 ✈ KSAN - KLAS

Flight Track Log - Related Links

Times and Time Zones

All times are in EDT time to prevent confusion due to time zone crossing. See the SWA407 flight status page for this flight to view local times or setup timezone preferences in your user account.

Time Position Orientation Groundspeed Altitude Reporting Facility
EDT Latitude Longitude Course Direction KTS MPH feet Rate Location/Type
01:00AM 32.7736 -117.2739 302° West 201 231 3,600  Level Los Angeles Center
01:01AM 32.8114 -117.3439 303° West 250 288 6,000 3,360 Climbing Los Angeles Center
01:02AM 32.8594 -117.4228 306° West 287 330 10,500 4,080 Climbing Los Angeles Center
01:03AM 32.9358 -117.5111 316° Northwest 327 376 14,300 3,540 Climbing Los Angeles Center
01:04AM 33.0172 -117.5781 325° Northwest 355 409 17,700 3,360 Climbing Los Angeles Center
01:05AM 33.0800 -117.6769 307° West 370 426 21,200 3,120 Climbing Los Angeles Center
01:06AM 33.1456 -117.7772 308° West 379 436 24,100 2,880 Climbing Los Angeles Center
01:07AM 33.2139 -117.8797 309° West 392 451 27,200 2,340 Climbing Los Angeles Center
01:08AM 33.2900 -117.9733 314° West 392 451 29,000 840 Climbing Los Angeles Center
01:09AM 33.3897 -118.0239 337° Northwest 409 471 29,000  Level Los Angeles Center
01:10AM 33.5083 -118.0328 356° North 426 490 29,000  Level Los Angeles Center
01:11AM 33.6267 -118.0422 356° North 429 494 29,000  Level Los Angeles Center
01:12AM 33.7700 -118.0106 10° North 461 531 29,000  Level Los Angeles Center
01:13AM 33.8808 -117.9300 31° Northeast 471 542 29,000  Level Los Angeles Center
01:14AM 33.9917 -117.8494 31° Northeast 469 540 29,000  Level Los Angeles Center
01:15AM 34.0983 -117.7606 35° Northeast 469 540 29,000  Level Los Angeles Center
01:16AM 34.1869 -117.6414 48° Northeast 477 549 29,000  Level Los Angeles Center
01:17AM 34.2756 -117.5219 48° Northeast 479 551 29,000  Level Los Angeles Center
01:18AM 34.3633 -117.4008 49° Northeast 478 550 29,000  Level Los Angeles Center
01:19AM 34.4572 -117.2722 48° Northeast 480 552 29,000  Level Los Angeles Center
01:20AM 34.5444 -117.1525 48° Northeast 478 550 29,000  Level Los Angeles Center
01:22AM 34.6333 -117.0319 48° Northeast 482 555 29,000  Level Los Angeles Center
01:23AM 34.7392 -116.8856 49° Northeast 483 556 29,000  Level Los Angeles Center
01:24AM 34.8444 -116.7392 49° Northeast 483 556 29,000 -540 Level Los Angeles Center
01:25AM 34.9322 -116.6172 49° Northeast 481 554 28,000 -1,260 Descending Los Angeles Center
01:26AM 35.0208 -116.5025 47° Northeast 467 537 26,500 -1,740 Descending Los Angeles Center
01:27AM 35.1089 -116.3928 46° Northeast 455 524 24,500 -1,260 Descending Los Angeles Center
01:28AM 35.1936 -116.2861 46° Northeast 445 512 24,000 -300 Descending Los Angeles Center
01:29AM 35.2781 -116.1797 46° Northeast 437 503 24,000 -840 Level Los Angeles Center
01:30AM 35.3633 -116.0725 46° Northeast 440 506 22,400 -2,400 Descending Los Angeles Center
01:30AM 35.4164 -116.0056 46° Northeast 439 505 20,400 -3,060 Descending Los Angeles Center
01:31AM 35.4467 -115.9650 47° Northeast 436 502 19,300 -3,060 Descending Los Angeles Center
01:32AM 35.5267 -115.8653 45° Northeast 430 495 16,400 -2,940 Descending Los Angeles Center
01:33AM 35.6172 -115.7522 45° Northeast 399 459 13,400 -1,560 Descending Los Angeles Center
01:34AM 35.6825 -115.6686 46° Northeast 350 403 13,000 -180 Descending Los Angeles Center
01:35AM 35.7439 -115.5914 46° Northeast 300 345 13,100 -60 Climbing Los Angeles Center
01:36AM 35.8194 -115.5617 18° North 292 336 12,900 -600 Descending Los Angeles Center
01:37AM 35.8636 -115.4850 55° Northeast 290 334 11,900 -1,080 Descending Los Angeles Center
01:38AM 35.9133 -115.3942 56° Northeast 298 343 10,800 -1,140 Descending Los Angeles Center
01:39AM 35.9633 -115.3028 56° Northeast 293 337 9,700 -900 Descending Los Angeles Center
01:40AM 36.0078 -115.2211 56° Northeast 291 335 9,000 -840 Descending Los Angeles Center
01:41AM 36.0136 -115.1258 86° East 294 338 8,000 -480 Descending Los Angeles Center
01:42AM 36.0108 -115.0567 93° East 218 251 8,200 -780 Climbing Los Angeles Center
01:43AM 36.0247 -115.0017 73° East 172 198 6,600 -1,740 Descending Los Angeles Center
01:44AM 36.0731 -114.9961 North 152 175 4,500 -1,560 Descending Los Angeles Center
01:45AM 36.0750 -115.0436 273° West 139 160 3,400 -960 Descending Los Angeles Center
01:46AM 36.0742 -115.0997 269° West 143 165 2,500 -660 Descending Los Angeles Center
01:47AM 36.0739 -115.1392 270° West 144 166 2,000 -540 Descending Los Angeles Center
01:49AM 36.0667 -115.1500 270° West  Level FlightAware Approximate